Big Bear Station Historical Data
Daily Summary for July 7, 2017 Units:  English    Metric   Both
« Previous Day
Next Day »
Daily Weekly Monthly Yearly Custom
  High: Low: Average:
Temperature: 91.6 °F 54.9 °F 71.3 °F
Dew Point: 59.1 °F 42.2 °F 47.2 °F
Humidity: 77 % 19 % 46 %
Wind Speed: 6.8 mph 0.0 mph 1.3 mph
Wind Gust: -999.0 mph - -
Wind:- - SW
Pressure: 30.36 in 30.30 in -
Precipitation: 0.02 in    
Historical Graphs
 
 
Tabular Data for July 7, 2017
Time Temperature Dew Point Pressure Wind Wind Speed Wind Gust Humidity Rainfall Rate (Hourly)
00:09 62.2 °F 44.4 °F 30.35 in Calm   -999.0 mph 52 % 0 in
00:24 61.5 °F 43.2 °F 30.35 in Calm   -999.0 mph 51 % 0 in
00:39 60.8 °F 43.1 °F 30.35 in Calm   -999.0 mph 52 % 0 in
00:54 60.3 °F 43.1 °F 30.35 in Calm   -999.0 mph 53 % 0 in
01:10 59.7 °F 44.0 °F 30.35 in Calm   -999.0 mph 56 % 0 in
01:25 59.2 °F 44.4 °F 30.34 in Calm   -999.0 mph 58 % 0 in
01:40 58.6 °F 43.9 °F 30.34 in Calm   -999.0 mph 58 % 0 in
01:55 58.5 °F 45.1 °F 30.34 in Calm   -999.0 mph 61 % 0 in
02:10 58.1 °F 46.4 °F 30.34 in Calm   -999.0 mph 65 % 0 in
02:26 58.1 °F 46.4 °F 30.34 in Calm   -999.0 mph 65 % 0 in
02:41 57.9 °F 46.2 °F 30.33 in Calm   -999.0 mph 65 % 0 in
02:56 57.6 °F 45.5 °F 30.33 in Calm   -999.0 mph 64 % 0 in
03:11 57.2 °F 44.3 °F 30.33 in Calm   -999.0 mph 62 % 0 in
03:27 57.0 °F 44.5 °F 30.33 in Calm   -999.0 mph 63 % 0 in
03:42 56.8 °F 43.9 °F 30.33 in Calm   -999.0 mph 62 % 0 in
03:57 56.5 °F 43.6 °F 30.33 in Calm   -999.0 mph 62 % 0 in
04:12 56.1 °F 44.5 °F 30.33 in Calm   -999.0 mph 65 % 0 in
04:27 56.1 °F 44.9 °F 30.33 in Calm   -999.0 mph 66 % 0 in
04:43 55.8 °F 44.6 °F 30.33 in Calm   -999.0 mph 66 % 0 in
04:58 55.6 °F 44.0 °F 30.33 in Calm   -999.0 mph 65 % 0 in
05:13 55.4 °F 43.8 °F 30.33 in Calm   -999.0 mph 65 % 0 in
05:28 55.2 °F 43.6 °F 30.34 in Calm   -999.0 mph 65 % 0 in
05:43 55.0 °F 43.0 °F 30.34 in Calm   -999.0 mph 64 % 0 in
05:59 54.9 °F 44.1 °F 30.34 in Calm   -999.0 mph 67 % 0 in
06:14 55.0 °F 45.8 °F 30.34 in Calm   -999.0 mph 71 % 0 in
06:29 55.0 °F 46.9 °F 30.34 in Calm   -999.0 mph 74 % 0 in
06:44 55.4 °F 48.0 °F 30.35 in Calm   -999.0 mph 76 % 0 in
06:59 55.8 °F 48.7 °F 30.35 in Calm   -999.0 mph 77 % 0 in
07:15 56.7 °F 48.9 °F 30.35 in Calm   -999.0 mph 75 % 0 in
07:30 57.7 °F 49.8 °F 30.36 in Calm   -999.0 mph 75 % 0 in
07:45 58.3 °F 50.4 °F 30.36 in Calm   -999.0 mph 75 % 0 in
08:00 59.7 °F 48.7 °F 30.36 in Calm   -999.0 mph 67 % 0 in
08:15 61.9 °F 50.0 °F 30.36 in Calm   -999.0 mph 65 % 0 in
08:31 63.9 °F 52.7 °F 30.36 in Calm   -999.0 mph 67 % 0 in
08:46 65.7 °F 52.8 °F 30.36 in Calm   -999.0 mph 63 % 0 in
09:01 67.5 °F 48.7 °F 30.36 in Calm   -999.0 mph 51 % 0 in
09:16 69.6 °F 48.5 °F 30.36 in Calm   -999.0 mph 47 % 0 in
09:32 72.9 °F 50.9 °F 30.35 in NNW 2.2 mph -999.0 mph 46 % 0 in
09:47 75.7 °F 51.0 °F 30.35 in NW 3.2 mph -999.0 mph 42 % 0 in
10:02 78.1 °F 50.4 °F 30.35 in NNW 3.7 mph -999.0 mph 38 % 0 in
10:17 80.2 °F 46.8 °F 30.35 in NW 4.2 mph -999.0 mph 31 % 0 in
10:32 82.0 °F 49.2 °F 30.34 in Calm   -999.0 mph 32 % 0 in
10:48 84.0 °F 43.3 °F 30.35 in WNW 5.8 mph -999.0 mph 24 % 0 in
11:03 83.8 °F 46.3 °F 30.35 in NW 5.8 mph -999.0 mph 27 % 0 in
11:18 84.6 °F 45.9 °F 30.35 in NW 3.7 mph -999.0 mph 26 % 0 in
11:33 86.9 °F 45.8 °F 30.34 in NNW 3.7 mph -999.0 mph 24 % 0 in
11:49 88.5 °F 42.3 °F 30.35 in WNW 4.7 mph -999.0 mph 20 % 0 in
12:04 90.0 °F 42.2 °F 30.35 in SSE 1.7 mph -999.0 mph 19 % 0 in
12:19 91.6 °F 44.9 °F 30.35 in NNW 4.7 mph -999.0 mph 20 % 0 in
12:35 90.9 °F 45.6 °F 30.34 in WNW 3.2 mph -999.0 mph 21 % 0 in
12:50 87.1 °F 44.8 °F 30.34 in WNW 3.7 mph -999.0 mph 23 % 0 in
13:05 86.0 °F 46.1 °F 30.34 in WSW 4.2 mph -999.0 mph 25 % 0 in
13:21 90.7 °F 44.1 °F 30.34 in NNE 1.7 mph -999.0 mph 20 % 0 in
13:36 86.5 °F 44.3 °F 30.34 in NW 3.7 mph -999.0 mph 23 % 0 in
13:51 86.7 °F 43.3 °F 30.34 in NNW 2.2 mph -999.0 mph 22 % 0 in
14:07 86.7 °F 44.5 °F 30.34 in NW 3.2 mph -999.0 mph 23 % 0 in
14:22 85.1 °F 48.3 °F 30.34 in NNE 1.7 mph -999.0 mph 28 % 0 in
14:37 73.4 °F 54.7 °F 30.35 in SSE 4.2 mph -999.0 mph 52 % 0 in
14:52 71.1 °F 56.0 °F 30.35 in South 2.7 mph -999.0 mph 59 % 0 in
15:07 73.8 °F 59.1 °F 30.34 in Calm   -999.0 mph 60 % 0 in
15:23 76.1 °F 52.0 °F 30.34 in Calm   -999.0 mph 43 % 0 in
15:38 81.7 °F 48.1 °F 30.33 in SSE 1.1 mph -999.0 mph 31 % 0 in
15:53 81.5 °F 49.6 °F 30.33 in NW 2.7 mph -999.0 mph 33 % 0 in
16:09 82.0 °F 48.4 °F 30.32 in NNE 2.2 mph -999.0 mph 31 % 0 in
16:24 84.7 °F 46.0 °F 30.32 in NW 2.7 mph -999.0 mph 26 % 0 in
16:39 84.2 °F 45.6 °F 30.32 in Calm   -999.0 mph 26 % 0 in
16:54 83.8 °F 46.3 °F 30.31 in ESE 3.2 mph -999.0 mph 27 % 0 in
17:10 88.3 °F 49.1 °F 30.31 in Calm   -999.0 mph 26 % 0 in
17:25 88.7 °F 48.4 °F 30.31 in East 6.8 mph -999.0 mph 25 % 0 in
17:40 88.0 °F 48.8 °F 30.31 in WSW 4.7 mph -999.0 mph 26 % 0 in
17:55 87.6 °F 47.4 °F 30.31 in SSE 3.2 mph -999.0 mph 25 % 0 in
18:10 86.9 °F 47.9 °F 30.30 in NW 5.3 mph -999.0 mph 26 % 0 in
18:26 86.5 °F 48.6 °F 30.30 in NW 3.2 mph -999.0 mph 27 % 0 in
18:41 85.8 °F 49.9 °F 30.30 in West 2.7 mph -999.0 mph 29 % 0 in
18:56 84.0 °F 49.2 °F 30.31 in South 2.7 mph -999.0 mph 30 % 0 in
19:11 84.0 °F 50.1 °F 30.31 in NNW 1.7 mph -999.0 mph 31 % 0 in
19:27 81.7 °F 49.8 °F 30.31 in Calm   -999.0 mph 33 % 0 in
19:42 79.3 °F 49.3 °F 30.31 in NE 2.7 mph -999.0 mph 35 % 0 in
19:57 77.2 °F 49.6 °F 30.31 in NNE 1.7 mph -999.0 mph 38 % 0 in
20:12 76.3 °F 49.5 °F 30.31 in Calm   -999.0 mph 39 % 0 in
20:27 75.2 °F 49.2 °F 30.31 in Calm   -999.0 mph 40 % 0 in
20:43 74.1 °F 48.2 °F 30.31 in Calm   -999.0 mph 40 % 0 in
20:58 72.3 °F 46.6 °F 30.31 in South 1.1 mph -999.0 mph 40 % 0 in
21:13 71.1 °F 46.2 °F 30.32 in SE 1.7 mph -999.0 mph 41 % 0 in
21:28 70.5 °F 46.3 °F 30.32 in Calm   -999.0 mph 42 % 0 in
21:43 69.4 °F 47.7 °F 30.32 in Calm   -999.0 mph 46 % 0 in
21:59 68.2 °F 46.6 °F 30.32 in Calm   -999.0 mph 46 % 0 in
22:14 67.3 °F 46.4 °F 30.32 in Calm   -999.0 mph 47 % 0 in
22:29 66.2 °F 49.6 °F 30.32 in Calm   -999.0 mph 55 % 0 in
22:44 65.5 °F 49.4 °F 30.32 in Calm   -999.0 mph 56 % 0 in
22:59 64.6 °F 49.0 °F 30.32 in Calm   -999.0 mph 57 % 0 in
23:15 63.9 °F 49.7 °F 30.33 in Calm   -999.0 mph 60 % 0 in
23:30 63.3 °F 48.7 °F 30.32 in Calm   -999.0 mph 59 % 0 in
23:45 62.8 °F 47.8 °F 30.33 in Calm   -999.0 mph 58 % 0 in
Big Bear CA Weather
Compliments of Weather Underground - 1.5 mb